Time;durP1;ratioP1;P1;durP2;ratioP2;P2;SDS_P1;SDS_P2;PMS_P1;PMS_P2;Temp;Humidity;BMP_temperature;BMP_pressure;BME280_temperature;BME280_humidity;BME280_pressure;Samples;Min_cycle;Max_cycle;Signal;HPM_P1;HPM_P2
2022/10/23 00:00:56;;;;;;;12.52;7.25;;;;;;;;;;5087628;28;20028;-56
2022/10/23 00:03:21;;;;;;;20.50;7.75;;;;;;;;;;5093213;28;20015;-56
2022/10/23 00:05:46;;;;;;;19.30;8.30;;;;;;;;;;5081713;28;20043;-56
2022/10/23 00:08:12;;;;;;;13.93;8.00;;;;;;;;;;5094806;28;20024;-57
2022/10/23 00:10:39;;;;;;;18.67;8.63;;;;;;;;;;5090429;28;20044;-57
2022/10/23 00:13:04;;;;;;;12.35;7.63;;;;;;;;;;5093476;28;20118;-57
2022/10/23 00:15:29;;;;;;;18.05;8.30;;;;;;;;;;5091282;28;20447;-56
2022/10/23 00:17:54;;;;;;;16.80;8.32;;;;;;;;;;5083833;28;20085;-56
2022/10/23 00:20:20;;;;;;;21.52;9.52;;;;;;;;;;5100044;28;20678;-57
2022/10/23 00:22:46;;;;;;;17.83;8.93;;;;;;;;;;5090519;28;20024;-56
2022/10/23 00:25:11;;;;;;;24.55;8.73;;;;;;;;;;5090399;28;20020;-57
2022/10/23 00:27:36;;;;;;;25.30;11.07;;;;;;;;;;5091120;28;20020;-57
2022/10/23 00:30:02;;;;;;;27.10;10.57;;;;;;;;;;5093437;28;20036;-56
2022/10/23 00:32:27;;;;;;;29.75;11.10;;;;;;;;;;5093043;28;20024;-56
2022/10/23 00:34:52;;;;;;;25.05;10.50;;;;;;;;;;5094117;28;20028;-56
2022/10/23 00:37:18;;;;;;;28.10;11.18;;;;;;;;;;5095687;28;20023;-55
2022/10/23 00:39:43;;;;;;;26.50;11.18;;;;;;;;;;5092184;28;20008;-56
2022/10/23 00:42:26;;;;;;;28.23;10.13;;;;;;;;;;5095452;28;20043;-56
2022/10/23 00:44:52;;;;;;;25.92;10.30;;;;;;;;;;5093305;28;20150;-56
2022/10/23 00:47:17;;;;;;;20.92;8.45;;;;;;;;;;5086154;28;20107;-56
2022/10/23 00:49:42;;;;;;;20.48;8.35;;;;;;;;;;5088052;28;20100;-57
2022/10/23 00:52:08;;;;;;;23.85;9.05;;;;;;;;;;5089857;28;20042;-55
2022/10/23 00:54:35;;;;;;;24.45;8.60;;;;;;;;;;5080668;28;20017;-57
2022/10/23 00:57:00;;;;;;;27.05;8.65;;;;;;;;;;5094774;28;20020;-56
2022/10/23 00:59:26;;;;;;;20.92;8.40;;;;;;;;;;5097809;28;20505;-56
2022/10/23 01:01:51;;;;;;;21.95;8.30;;;;;;;;;;5093676;28;20024;-56
2022/10/23 01:04:16;;;;;;;15.07;8.13;;;;;;;;;;5087319;28;20095;-57
2022/10/23 01:06:44;;;;;;;15.30;7.53;;;;;;;;;;5089238;28;20066;-55
2022/10/23 01:09:30;;;;;;;20.45;6.95;;;;;;;;;;5095253;28;20058;-57
2022/10/23 01:12:14;;;;;;;14.25;7.25;;;;;;;;;;5090709;28;20036;-57
2022/10/23 01:14:42;;;;;;;19.27;7.25;;;;;;;;;;5086256;28;21731;-55
2022/10/23 01:17:09;;;;;;;19.92;7.20;;;;;;;;;;5086830;28;20047;-55
2022/10/23 01:19:53;;;;;;;14.90;6.65;;;;;;;;;;5100856;28;20034;-56
2022/10/23 01:22:26;;;;;;;15.27;6.75;;;;;;;;;;5086620;28;20063;-56
2022/10/23 01:24:52;;;;;;;20.98;6.90;;;;;;;;;;5090034;28;20038;-56
2022/10/23 01:27:23;;;;;;;16.08;6.95;;;;;;;;;;5084358;28;20593;-56
2022/10/23 01:30:03;;;;;;;15.80;6.97;;;;;;;;;;5083564;28;20493;-56
2022/10/23 01:32:43;;;;;;;18.98;7.32;;;;;;;;;;5084965;28;20024;-56
2022/10/23 01:35:13;;;;;;;21.02;7.65;;;;;;;;;;5098995;28;20047;-55
2022/10/23 01:37:40;;;;;;;29.50;8.23;;;;;;;;;;5074457;28;20027;-55
2022/10/23 01:40:07;;;;;;;24.30;7.85;;;;;;;;;;5093697;28;20046;-56
2022/10/23 01:42:34;;;;;;;18.80;7.20;;;;;;;;;;5085251;28;20031;-56
2022/10/23 01:45:11;;;;;;;24.00;7.28;;;;;;;;;;5085695;28;20024;-55
2022/10/23 01:47:37;;;;;;;18.83;7.65;;;;;;;;;;5091151;28;20191;-56
2022/10/23 01:50:03;;;;;;;22.00;8.88;;;;;;;;;;5087029;28;20359;-55
2022/10/23 01:52:28;;;;;;;28.08;9.65;;;;;;;;;;5084651;28;20042;-55
2022/10/23 01:54:54;;;;;;;23.55;9.02;;;;;;;;;;5080283;28;20028;-55
2022/10/23 01:57:19;;;;;;;15.63;7.03;;;;;;;;;;5089001;28;20387;-56
2022/10/23 01:59:47;;;;;;;17.90;8.40;;;;;;;;;;5097292;28;20032;-55
2022/10/23 02:02:12;;;;;;;17.23;7.40;;;;;;;;;;5090183;28;20573;-57
2022/10/23 02:04:48;;;;;;;18.10;7.15;;;;;;;;;;5087056;28;20073;-56
2022/10/23 02:07:13;;;;;;;13.00;7.13;;;;;;;;;;5087010;28;20035;-57
2022/10/23 02:09:39;;;;;;;16.25;6.72;;;;;;;;;;5090081;28;20019;-57
2022/10/23 02:12:04;;;;;;;19.85;7.65;;;;;;;;;;5100463;28;20134;-57
2022/10/23 02:14:40;;;;;;;14.70;7.07;;;;;;;;;;5088590;28;20023;-57
2022/10/23 02:17:11;;;;;;;14.48;6.80;;;;;;;;;;5082227;28;20032;-57
2022/10/23 02:19:40;;;;;;;14.65;7.05;;;;;;;;;;5085871;28;20111;-60
2022/10/23 02:22:18;;;;;;;15.75;7.63;;;;;;;;;;5088371;28;20132;-58
2022/10/23 02:24:45;;;;;;;12.05;7.38;;;;;;;;;;5084739;28;20093;-57
2022/10/23 02:27:17;;;;;;;15.73;7.50;;;;;;;;;;5088785;28;20038;-58
2022/10/23 02:29:47;;;;;;;29.83;7.70;;;;;;;;;;5094719;28;20116;-57
2022/10/23 02:32:12;;;;;;;23.00;7.00;;;;;;;;;;5080974;28;20015;-57
2022/10/23 02:34:37;;;;;;;29.10;8.15;;;;;;;;;;5091426;28;20030;-57
2022/10/23 02:37:02;;;;;;;25.77;7.78;;;;;;;;;;5085158;28;20085;-56
2022/10/23 02:39:28;;;;;;;22.55;7.90;;;;;;;;;;5088989;28;20056;-57
2022/10/23 02:42:12;;;;;;;48.63;8.00;;;;;;;;;;5089323;28;20065;-57
2022/10/23 02:44:56;;;;;;;35.67;7.95;;;;;;;;;;5091726;28;20027;-55
2022/10/23 02:47:27;;;;;;;66.40;8.95;;;;;;;;;;5089374;28;20119;-57
2022/10/23 02:49:55;;;;;;;105.20;10.38;;;;;;;;;;5087534;28;20008;-56
2022/10/23 02:52:22;;;;;;;63.58;8.10;;;;;;;;;;5087915;28;20016;-58
2022/10/23 02:54:50;;;;;;;85.70;8.75;;;;;;;;;;5081301;28;20363;-57
2022/10/23 02:57:28;;;;;;;109.45;8.68;;;;;;;;;;5081253;28;20775;-57
2022/10/23 02:59:56;;;;;;;85.05;8.98;;;;;;;;;;5083409;28;20027;-57
2022/10/23 03:02:31;;;;;;;112.68;9.27;;;;;;;;;;5082929;28;20047;-57
2022/10/23 03:04:57;;;;;;;82.75;9.52;;;;;;;;;;5092970;28;20386;-58
2022/10/23 03:07:24;;;;;;;54.03;10.85;;;;;;;;;;5091871;28;20036;-56
2022/10/23 03:09:49;;;;;;;45.90;11.30;;;;;;;;;;5083948;28;20016;-56
2022/10/23 03:12:14;;;;;;;40.38;11.75;;;;;;;;;;5089596;28;20056;-57
2022/10/23 03:14:39;;;;;;;33.88;11.13;;;;;;;;;;5082056;28;20052;-57
2022/10/23 03:17:04;;;;;;;21.75;10.75;;;;;;;;;;5086400;28;20028;-57
2022/10/23 03:19:30;;;;;;;20.02;9.48;;;;;;;;;;5103665;28;20019;-56
2022/10/23 03:21:55;;;;;;;51.58;11.10;;;;;;;;;;5085605;28;20047;-57
2022/10/23 03:24:20;;;;;;;81.85;10.02;;;;;;;;;;5081209;28;20039;-56
2022/10/23 03:26:45;;;;;;;66.07;10.60;;;;;;;;;;5087203;28;20385;-57
2022/10/23 03:29:11;;;;;;;43.47;9.63;;;;;;;;;;5088856;28;20381;-56
2022/10/23 03:31:36;;;;;;;33.63;8.73;;;;;;;;;;5092411;28;20020;-57
2022/10/23 03:34:01;;;;;;;102.07;9.93;;;;;;;;;;5097450;28;20081;-58
2022/10/23 03:36:26;;;;;;;82.65;10.55;;;;;;;;;;5097048;28;20351;-57
2022/10/23 03:38:52;;;;;;;179.85;11.70;;;;;;;;;;5093387;28;20018;-58
2022/10/23 03:41:17;;;;;;;70.32;11.00;;;;;;;;;;5089806;28;20127;-57
2022/10/23 03:43:42;;;;;;;59.83;11.25;;;;;;;;;;5096787;28;20052;-57
2022/10/23 03:46:11;;;;;;;44.78;10.43;;;;;;;;;;5099323;28;20063;-57
2022/10/23 03:48:37;;;;;;;24.10;10.75;;;;;;;;;;5091329;28;20024;-57
2022/10/23 03:51:02;;;;;;;37.70;9.88;;;;;;;;;;5093913;28;20081;-56
2022/10/23 03:53:28;;;;;;;15.68;9.65;;;;;;;;;;5093383;28;20102;-57
2022/10/23 03:55:53;;;;;;;18.48;9.93;;;;;;;;;;5095888;28;20016;-57
2022/10/23 03:58:18;;;;;;;22.63;10.38;;;;;;;;;;5093962;28;20027;-56
2022/10/23 04:00:43;;;;;;;38.38;10.95;;;;;;;;;;5087757;28;20099;-56
2022/10/23 04:03:09;;;;;;;32.38;11.05;;;;;;;;;;5096254;28;20386;-57
2022/10/23 04:05:34;;;;;;;39.80;10.65;;;;;;;;;;5090388;28;20043;-56
2022/10/23 04:08:00;;;;;;;41.45;10.45;;;;;;;;;;5092293;28;20433;-56
2022/10/23 04:10:25;;;;;;;19.15;9.68;;;;;;;;;;5090531;28;20024;-56
2022/10/23 04:12:51;;;;;;;17.10;9.43;;;;;;;;;;5093464;28;20039;-56
2022/10/23 04:15:16;;;;;;;15.52;9.48;;;;;;;;;;5098337;28;20019;-57
2022/10/23 04:17:41;;;;;;;15.73;8.90;;;;;;;;;;5098120;28;20088;-57
2022/10/23 04:20:07;;;;;;;14.55;9.75;;;;;;;;;;5098309;28;20043;-56
2022/10/23 04:22:32;;;;;;;14.48;8.85;;;;;;;;;;5091480;28;20040;-57
2022/10/23 04:24:57;;;;;;;13.93;8.13;;;;;;;;;;5094108;28;20436;-55
2022/10/23 04:27:22;;;;;;;14.35;8.90;;;;;;;;;;5093251;28;20491;-56
2022/10/23 04:29:48;;;;;;;17.63;10.10;;;;;;;;;;5093239;28;20368;-56
2022/10/23 04:32:13;;;;;;;15.57;9.68;;;;;;;;;;5087429;28;20470;-56
2022/10/23 04:34:38;;;;;;;16.13;9.57;;;;;;;;;;5089406;28;20016;-56
2022/10/23 04:37:03;;;;;;;15.20;8.00;;;;;;;;;;5094071;28;20024;-56
2022/10/23 04:39:29;;;;;;;14.55;8.13;;;;;;;;;;5079231;28;20493;-55
2022/10/23 04:41:54;;;;;;;21.63;8.68;;;;;;;;;;5085099;28;20032;-56
2022/10/23 04:44:19;;;;;;;15.25;9.77;;;;;;;;;;5087066;28;20036;-56
2022/10/23 04:46:44;;;;;;;16.33;7.97;;;;;;;;;;5083705;28;20063;-56
2022/10/23 04:49:09;;;;;;;19.90;8.88;;;;;;;;;;5086655;28;20048;-56
2022/10/23 04:51:36;;;;;;;24.95;8.93;;;;;;;;;;5081691;28;20025;-56
2022/10/23 04:54:02;;;;;;;28.23;8.02;;;;;;;;;;5090394;28;20110;-56
2022/10/23 04:56:27;;;;;;;138.63;11.88;;;;;;;;;;5088681;28;20140;-56
2022/10/23 04:58:53;;;;;;;27.65;9.15;;;;;;;;;;5090412;28;20024;-55
2022/10/23 05:01:18;;;;;;;17.23;9.82;;;;;;;;;;5109279;27;20031;-56
2022/10/23 05:03:44;;;;;;;17.67;9.23;;;;;;;;;;5110371;27;20111;-56
2022/10/23 05:06:09;;;;;;;72.35;11.45;;;;;;;;;;5089456;28;20042;-56
2022/10/23 05:08:34;;;;;;;51.03;11.13;;;;;;;;;;5079934;28;20024;-56
2022/10/23 05:11:00;;;;;;;68.75;11.18;;;;;;;;;;5094536;28;20078;-56
2022/10/23 05:13:25;;;;;;;129.93;10.57;;;;;;;;;;5089068;28;20573;-55
2022/10/23 05:15:50;;;;;;;49.75;11.07;;;;;;;;;;5093629;28;20027;-61
2022/10/23 05:18:17;;;;;;;67.63;11.00;;;;;;;;;;5096669;28;20488;-56
2022/10/23 05:20:42;;;;;;;72.07;11.85;;;;;;;;;;5086643;27;20093;-57
2022/10/23 05:23:08;;;;;;;58.28;11.98;;;;;;;;;;5093298;28;20036;-57
2022/10/23 05:25:34;;;;;;;84.22;11.75;;;;;;;;;;5089226;27;20681;-56
2022/10/23 05:27:59;;;;;;;100.55;11.65;;;;;;;;;;5088370;28;20031;-57
2022/10/23 05:30:24;;;;;;;200.35;12.93;;;;;;;;;;5083886;28;20015;-57
2022/10/23 05:32:49;;;;;;;141.95;11.75;;;;;;;;;;5088430;28;20014;-56
2022/10/23 05:35:16;;;;;;;113.32;9.65;;;;;;;;;;5081309;28;20102;-57
2022/10/23 05:37:42;;;;;;;136.25;10.05;;;;;;;;;;5083039;28;20100;-56
2022/10/23 05:40:07;;;;;;;82.20;7.95;;;;;;;;;;5088235;28;20707;-56
2022/10/23 05:42:32;;;;;;;153.80;10.63;;;;;;;;;;5087498;28;20028;-56
2022/10/23 05:44:58;;;;;;;130.32;11.02;;;;;;;;;;5089419;28;20119;-55
2022/10/23 05:47:23;;;;;;;76.07;9.10;;;;;;;;;;5099093;28;20024;-56
2022/10/23 05:49:48;;;;;;;84.38;8.77;;;;;;;;;;5090998;28;20571;-56
2022/10/23 05:52:13;;;;;;;94.22;9.13;;;;;;;;;;5091032;28;20579;-54
2022/10/23 05:54:39;;;;;;;132.32;10.25;;;;;;;;;;5090839;28;20433;-58
2022/10/23 05:57:04;;;;;;;91.57;8.88;;;;;;;;;;5093711;28;20059;-55
2022/10/23 05:59:29;;;;;;;60.15;8.15;;;;;;;;;;5088291;28;20020;-55
2022/10/23 06:01:54;;;;;;;63.45;7.60;;;;;;;;;;5096281;28;20036;-55
2022/10/23 06:04:20;;;;;;;24.48;7.22;;;;;;;;;;5092256;28;20461;-56
2022/10/23 06:06:45;;;;;;;24.27;7.47;;;;;;;;;;5084848;28;20082;-56
2022/10/23 06:09:10;;;;;;;42.78;7.28;;;;;;;;;;5093229;28;20064;-55
2022/10/23 06:11:36;;;;;;;27.67;8.05;;;;;;;;;;5082321;28;20104;-55
2022/10/23 06:14:01;;;;;;;43.47;7.70;;;;;;;;;;5090840;28;20012;-56
2022/10/23 06:16:26;;;;;;;31.48;7.85;;;;;;;;;;5089366;28;20406;-56
2022/10/23 06:18:51;;;;;;;30.88;7.53;;;;;;;;;;5089926;28;20009;-55
2022/10/23 06:21:17;;;;;;;26.25;7.38;;;;;;;;;;5095048;28;20077;-56
2022/10/23 06:23:42;;;;;;;17.40;7.72;;;;;;;;;;5080942;28;20024;-55
2022/10/23 06:26:08;;;;;;;10.82;7.45;;;;;;;;;;5093420;28;20032;-56
2022/10/23 06:28:33;;;;;;;11.63;7.28;;;;;;;;;;5090369;28;20028;-55
2022/10/23 06:30:59;;;;;;;14.18;6.85;;;;;;;;;;5091955;28;20027;-56
2022/10/23 06:33:24;;;;;;;35.95;7.00;;;;;;;;;;5088464;28;20474;-57
2022/10/23 06:35:49;;;;;;;48.47;7.53;;;;;;;;;;5083437;28;20023;-56
2022/10/23 06:38:14;;;;;;;49.38;8.00;;;;;;;;;;5078294;28;20529;-58
2022/10/23 06:40:40;;;;;;;17.98;7.85;;;;;;;;;;5075104;28;20030;-55
2022/10/23 06:43:05;;;;;;;15.07;10.20;;;;;;;;;;5072790;28;20036;-57
2022/10/23 06:45:32;;;;;;;27.55;10.85;;;;;;;;;;5077208;28;20016;-55
2022/10/23 06:47:58;;;;;;;25.15;9.02;;;;;;;;;;5075892;28;20020;-56
2022/10/23 06:50:24;;;;;;;32.42;8.52;;;;;;;;;;5072892;28;20352;-57
2022/10/23 06:52:49;;;;;;;52.08;8.82;;;;;;;;;;5073340;28;20120;-57
2022/10/23 06:55:14;;;;;;;89.10;9.18;;;;;;;;;;5072599;28;20111;-57
2022/10/23 06:57:40;;;;;;;38.28;8.02;;;;;;;;;;5073982;28;20481;-58
2022/10/23 07:00:05;;;;;;;109.47;13.80;;;;;;;;;;5072204;28;20108;-58
2022/10/23 07:02:30;;;;;;;61.75;10.65;;;;;;;;;;5072901;28;20138;-56
2022/10/23 07:04:56;;;;;;;43.38;10.07;;;;;;;;;;5075864;28;20020;-57
2022/10/23 07:07:21;;;;;;;39.15;10.73;;;;;;;;;;5076488;28;20364;-57
2022/10/23 07:09:46;;;;;;;23.42;9.00;;;;;;;;;;5075390;28;20020;-57
2022/10/23 07:12:11;;;;;;;15.73;7.95;;;;;;;;;;5091035;28;20438;-57
2022/10/23 07:14:36;;;;;;;19.63;9.40;;;;;;;;;;5068884;28;20019;-57
2022/10/23 07:17:02;;;;;;;13.52;8.75;;;;;;;;;;5073860;28;20020;-56
2022/10/23 07:19:27;;;;;;;12.55;8.00;;;;;;;;;;5079341;28;20386;-56
2022/10/23 07:21:52;;;;;;;15.05;8.20;;;;;;;;;;5073202;28;20032;-56
2022/10/23 07:24:17;;;;;;;21.85;10.35;;;;;;;;;;5076591;28;20012;-56
2022/10/23 07:26:43;;;;;;;40.97;21.48;;;;;;;;;;5072417;28;20024;-57
2022/10/23 07:29:09;;;;;;;15.45;9.00;;;;;;;;;;5078079;28;20024;-56
2022/10/23 07:31:34;;;;;;;16.58;9.52;;;;;;;;;;5070247;28;20047;-56
2022/10/23 07:33:59;;;;;;;13.38;7.32;;;;;;;;;;5079131;28;20016;-56
2022/10/23 07:36:25;;;;;;;12.30;6.90;;;;;;;;;;5069964;28;20066;-56
2022/10/23 07:38:50;;;;;;;8.75;6.00;;;;;;;;;;5064440;28;20451;-56
2022/10/23 07:41:15;;;;;;;11.25;5.47;;;;;;;;;;5075620;28;20485;-57
2022/10/23 07:43:40;;;;;;;23.55;5.90;;;;;;;;;;5070258;28;20028;-56
2022/10/23 07:46:08;;;;;;;14.10;5.88;;;;;;;;;;5079016;28;20028;-57
2022/10/23 07:48:33;;;;;;;19.73;6.65;;;;;;;;;;5073803;28;20033;-56
2022/10/23 07:51:02;;;;;;;16.52;6.55;;;;;;;;;;5077486;28;20019;-56
2022/10/23 07:53:28;;;;;;;9.15;5.95;;;;;;;;;;5076511;28;20077;-56
2022/10/23 07:55:57;;;;;;;8.93;6.45;;;;;;;;;;5073439;28;20375;-56
2022/10/23 07:58:22;;;;;;;9.52;5.57;;;;;;;;;;5074935;28;20028;-56
2022/10/23 08:00:57;;;;;;;9.73;5.95;;;;;;;;;;5074171;28;20020;-56
2022/10/23 08:03:25;;;;;;;8.57;6.72;;;;;;;;;;5070911;28;20062;-57
2022/10/23 08:05:51;;;;;;;8.25;5.60;;;;;;;;;;5070671;28;20105;-57
2022/10/23 08:08:16;;;;;;;9.00;6.45;;;;;;;;;;5073346;28;20470;-57
2022/10/23 08:10:42;;;;;;;9.60;5.97;;;;;;;;;;5074186;28;20028;-57
2022/10/23 08:13:08;;;;;;;10.65;6.28;;;;;;;;;;5080899;28;20086;-58
2022/10/23 08:15:34;;;;;;;9.57;6.97;;;;;;;;;;5075038;28;20027;-57
2022/10/23 08:17:59;;;;;;;7.47;6.00;;;;;;;;;;5073617;28;20027;-57
2022/10/23 08:20:24;;;;;;;10.55;5.70;;;;;;;;;;5079822;28;20020;-57
2022/10/23 08:22:50;;;;;;;9.55;5.80;;;;;;;;;;5071375;28;20324;-58
2022/10/23 08:25:15;;;;;;;6.95;5.20;;;;;;;;;;5077052;28;20016;-57
2022/10/23 08:27:40;;;;;;;8.60;5.38;;;;;;;;;;5081639;28;20039;-57
2022/10/23 08:30:06;;;;;;;6.97;4.70;;;;;;;;;;5083760;28;20031;-57
2022/10/23 08:32:31;;;;;;;8.63;5.43;;;;;;;;;;5075994;28;20115;-57
2022/10/23 08:34:56;;;;;;;8.20;4.88;;;;;;;;;;5085825;28;20389;-57
2022/10/23 08:37:21;;;;;;;9.68;4.72;;;;;;;;;;5076319;28;20020;-57
2022/10/23 08:39:46;;;;;;;7.75;4.43;;;;;;;;;;5078867;28;20031;-57
2022/10/23 08:42:17;;;;;;;8.30;4.40;;;;;;;;;;5078390;28;20441;-57
2022/10/23 08:44:44;;;;;;;;;;;;;;;;;;5077391;28;20029;-57
2022/10/23 08:47:13;;;;;;;5.20;3.88;;;;;;;;;;5076105;28;19912;-57
2022/10/23 08:49:49;;;;;;;6.85;3.70;;;;;;;;;;5079693;28;20076;-57
2022/10/23 08:52:17;;;;;;;6.93;4.03;;;;;;;;;;5070135;28;20533;-57
2022/10/23 08:54:45;;;;;;;6.00;3.97;;;;;;;;;;5076934;28;20031;-58
2022/10/23 08:57:14;;;;;;;7.88;4.03;;;;;;;;;;5080253;28;20339;-57
2022/10/23 08:59:53;;;;;;;5.63;3.95;;;;;;;;;;5072652;28;20020;-57
2022/10/23 09:02:23;;;;;;;7.75;4.93;;;;;;;;;;5075125;28;20071;-57
2022/10/23 09:04:49;;;;;;;7.57;3.90;;;;;;;;;;5073806;28;20074;-57
2022/10/23 09:07:17;;;;;;;16.98;4.80;;;;;;;;;;5078966;28;20067;-57
2022/10/23 09:09:48;;;;;;;10.48;5.10;;;;;;;;;;5074980;28;20020;-58
2022/10/23 09:12:16;;;;;;;8.50;4.88;;;;;;;;;;5081131;28;20020;-57
2022/10/23 09:14:47;;;;;;;9.25;4.50;;;;;;;;;;5078167;28;20025;-58
2022/10/23 09:17:20;;;;;;;6.35;4.20;;;;;;;;;;5063532;28;21250;-57
2022/10/23 09:19:45;;;;;;;8.15;4.75;;;;;;;;;;5076195;28;20038;-58
2022/10/23 09:22:10;;;;;;;7.95;4.93;;;;;;;;;;5078888;28;20445;-58
2022/10/23 09:24:35;;;;;;;12.90;7.35;;;;;;;;;;5105849;27;20051;-58
2022/10/23 09:27:01;;;;;;;17.17;9.20;;;;;;;;;;5094618;28;20028;-58
2022/10/23 09:29:34;;;;;;;14.35;5.57;;;;;;;;;;5090221;28;20018;-58
2022/10/23 09:32:01;;;;;;;9.15;5.90;;;;;;;;;;5084329;28;21760;-57
2022/10/23 09:34:27;;;;;;;9.02;5.65;;;;;;;;;;5096962;28;20278;-57
2022/10/23 09:36:53;;;;;;;14.25;8.45;;;;;;;;;;5085349;28;20020;-57
2022/10/23 09:39:22;;;;;;;11.23;8.48;;;;;;;;;;5094041;28;20111;-57
2022/10/23 09:41:48;;;;;;;7.95;5.60;;;;;;;;;;5093337;28;20115;-57
2022/10/23 09:44:18;;;;;;;11.13;6.10;;;;;;;;;;5085645;28;20118;-57
2022/10/23 09:46:44;;;;;;;10.50;6.25;;;;;;;;;;5089798;28;20039;-57
2022/10/23 09:49:16;;;;;;;13.73;6.50;;;;;;;;;;5088653;28;20063;-57
2022/10/23 09:51:47;;;;;;;17.60;7.53;;;;;;;;;;5090459;28;20487;-57
2022/10/23 09:54:12;;;;;;;9.07;6.60;;;;;;;;;;5096046;28;20035;-57
2022/10/23 09:56:40;;;;;;;9.15;6.05;;;;;;;;;;5086127;28;20032;-57
2022/10/23 09:59:12;;;;;;;13.55;7.00;;;;;;;;;;5087910;28;20400;-57
2022/10/23 10:01:47;;;;;;;14.80;7.75;;;;;;;;;;5082857;28;20090;-57
2022/10/23 10:04:12;;;;;;;18.85;9.82;;;;;;;;;;5089415;28;20027;-57
2022/10/23 10:06:37;;;;;;;9.05;6.05;;;;;;;;;;5093746;28;20378;-57
2022/10/23 10:09:04;;;;;;;15.35;8.00;;;;;;;;;;5089742;28;20386;-58
2022/10/23 10:11:53;;;;;;;17.42;9.68;;;;;;;;;;5097108;28;20122;-57
2022/10/23 10:14:21;;;;;;;9.70;5.78;;;;;;;;;;5073523;28;20115;-58
2022/10/23 10:16:50;;;;;;;12.93;6.70;;;;;;;;;;5089595;28;20024;-57
2022/10/23 10:19:35;;;;;;;8.77;5.33;;;;;;;;;;5088032;28;20031;-57
2022/10/23 10:22:19;;;;;;;49.95;23.88;;;;;;;;;;5090703;28;20303;-58
2022/10/23 10:24:50;;;;;;;10.05;6.78;;;;;;;;;;5090277;28;20070;-57
2022/10/23 10:27:21;;;;;;;8.25;5.70;;;;;;;;;;5083064;28;20092;-57
2022/10/23 10:29:50;;;;;;;8.73;6.28;;;;;;;;;;5088281;28;20024;-57
2022/10/23 10:32:19;;;;;;;10.60;6.07;;;;;;;;;;5081979;28;20038;-57
2022/10/23 10:34:52;;;;;;;15.03;8.80;;;;;;;;;;5089172;28;20675;-57
2022/10/23 10:37:18;;;;;;;11.07;6.47;;;;;;;;;;5083485;28;20031;-57
2022/10/23 10:39:52;;;;;;;10.48;6.45;;;;;;;;;;5084733;28;20026;-57
2022/10/23 10:42:18;;;;;;;11.48;6.28;;;;;;;;;;5068079;28;20525;-57
2022/10/23 10:44:49;;;;;;;13.35;7.20;;;;;;;;;;5073586;28;20312;-58
2022/10/23 10:47:33;;;;;;;11.77;7.50;;;;;;;;;;5070264;28;20024;-58
2022/10/23 10:50:06;;;;;;;12.52;7.55;;;;;;;;;;5077708;28;20078;-57
2022/10/23 10:52:48;;;;;;;9.75;7.15;;;;;;;;;;5078805;28;20111;-57
2022/10/23 10:55:37;;;;;;;10.65;6.50;;;;;;;;;;5072202;28;20016;-58
2022/10/23 10:58:23;;;;;;;11.80;6.60;;;;;;;;;;5062791;28;20043;-58
2022/10/23 11:00:53;;;;;;;8.73;6.18;;;;;;;;;;5074977;28;20023;-58
2022/10/23 11:03:18;;;;;;;;;;;;;;;;;;5079966;28;20033;-58
2022/10/23 11:05:44;;;;;;;12.20;5.70;;;;;;;;;;5072338;28;20370;-58
2022/10/23 11:08:19;;;;;;;8.45;5.43;;;;;;;;;;5080381;28;20280;-57
2022/10/23 11:10:45;;;;;;;11.57;5.70;;;;;;;;;;5071360;28;20027;-58
2022/10/23 11:13:20;;;;;;;10.23;4.47;;;;;;;;;;5076782;28;20023;-58
2022/10/23 11:15:45;;;;;;;6.90;4.78;;;;;;;;;;5076512;28;20258;-58
2022/10/23 11:18:11;;;;;;;7.97;4.70;;;;;;;;;;5072574;28;20394;-58
2022/10/23 11:20:40;;;;;;;7.38;4.28;;;;;;;;;;5069889;28;20058;-58
2022/10/23 11:23:09;;;;;;;10.27;4.03;;;;;;;;;;5073548;28;20136;-58
2022/10/23 11:25:37;;;;;;;10.40;3.97;;;;;;;;;;5079442;28;20027;-58
2022/10/23 11:28:08;;;;;;;7.90;4.68;;;;;;;;;;5080129;28;20027;-58
2022/10/23 11:30:43;;;;;;;6.72;4.55;;;;;;;;;;5071607;28;21388;-58
2022/10/23 11:33:29;;;;;;;7.18;4.90;;;;;;;;;;5071262;28;20028;-58
2022/10/23 11:35:57;;;;;;;19.20;6.03;;;;;;;;;;5065595;28;20107;-57
2022/10/23 11:38:22;;;;;;;28.42;6.43;;;;;;;;;;5072385;28;20046;-58
2022/10/23 11:40:51;;;;;;;7.65;4.35;;;;;;;;;;5078596;28;20024;-57
2022/10/23 11:43:26;;;;;;;9.93;4.70;;;;;;;;;;5076795;28;20055;-58
2022/10/23 11:45:52;;;;;;;10.90;4.70;;;;;;;;;;5072658;28;20022;-58
2022/10/23 11:48:40;;;;;;;12.27;4.72;;;;;;;;;;5072819;28;20077;-57
2022/10/23 11:51:23;;;;;;;7.03;4.90;;;;;;;;;;5070317;28;20079;-57
2022/10/23 11:53:48;;;;;;;8.90;4.72;;;;;;;;;;5085984;28;20020;-57
2022/10/23 11:56:14;;;;;;;11.05;4.63;;;;;;;;;;5081149;28;20026;-57
2022/10/23 11:58:40;;;;;;;13.05;4.95;;;;;;;;;;5082342;28;20020;-58
2022/10/23 12:01:25;;;;;;;13.05;4.78;;;;;;;;;;5077330;28;20020;-58
2022/10/23 12:03:55;;;;;;;8.70;4.68;;;;;;;;;;5069074;28;20035;-58
2022/10/23 12:06:24;;;;;;;11.43;4.50;;;;;;;;;;5074465;28;20049;-58
2022/10/23 12:08:50;;;;;;;10.73;4.47;;;;;;;;;;5080802;28;20039;-58
2022/10/23 12:11:23;;;;;;;10.10;6.40;;;;;;;;;;5077390;28;20367;-58
2022/10/23 12:13:48;;;;;;;8.68;5.28;;;;;;;;;;5075799;28;20024;-57
2022/10/23 12:16:13;;;;;;;9.45;4.97;;;;;;;;;;5074520;28;20074;-58
2022/10/23 12:18:47;;;;;;;14.30;4.88;;;;;;;;;;5080387;28;20045;-58
2022/10/23 12:21:20;;;;;;;8.43;4.00;;;;;;;;;;5073398;28;20024;-57
2022/10/23 12:23:58;;;;;;;10.70;4.55;;;;;;;;;;5075966;28;20514;-57
2022/10/23 12:26:32;;;;;;;10.48;5.18;;;;;;;;;;5079919;28;20346;-57
2022/10/23 12:29:04;;;;;;;6.60;3.97;;;;;;;;;;5078982;28;20029;-57
2022/10/23 12:31:48;;;;;;;9.88;3.97;;;;;;;;;;5084315;28;20107;-57
2022/10/23 12:34:19;;;;;;;12.25;3.22;;;;;;;;;;5082532;28;20451;-57
2022/10/23 12:36:59;;;;;;;8.93;3.10;;;;;;;;;;5080153;28;20550;-57
2022/10/23 12:39:28;;;;;;;15.73;3.38;;;;;;;;;;5081683;28;20028;-57
2022/10/23 12:41:54;;;;;;;9.63;3.20;;;;;;;;;;5087276;28;20024;-57
2022/10/23 12:44:19;;;;;;;8.88;2.78;;;;;;;;;;5082706;28;20448;-57
2022/10/23 12:46:47;;;;;;;7.88;2.70;;;;;;;;;;5092372;28;20020;-55
2022/10/23 12:49:14;;;;;;;9.07;2.67;;;;;;;;;;5091022;28;20023;-57
2022/10/23 12:51:39;;;;;;;11.40;3.00;;;;;;;;;;5090397;28;20024;-56
2022/10/23 12:54:25;;;;;;;6.40;2.80;;;;;;;;;;5089341;28;20062;-57
2022/10/23 12:56:50;;;;;;;14.27;3.33;;;;;;;;;;5078326;28;20051;-57
2022/10/23 12:59:20;;;;;;;9.82;3.00;;;;;;;;;;5078391;28;20470;-57
2022/10/23 13:01:45;;;;;;;6.68;2.90;;;;;;;;;;5079590;28;20111;-57
2022/10/23 13:04:29;;;;;;;4.70;2.72;;;;;;;;;;5083383;28;20107;-57
2022/10/23 13:06:55;;;;;;;13.10;3.15;;;;;;;;;;5078789;28;20047;-57
2022/10/23 13:09:27;;;;;;;5.15;3.47;;;;;;;;;;5083941;28;20139;-56
2022/10/23 13:11:52;;;;;;;9.07;3.85;;;;;;;;;;5074171;28;20028;-57
2022/10/23 13:14:27;;;;;;;10.32;3.40;;;;;;;;;;5080989;28;20329;-56
2022/10/23 13:17:19;;;;;;;11.55;2.90;;;;;;;;;;5076002;28;20029;-56
2022/10/23 13:19:44;;;;;;;15.32;3.47;;;;;;;;;;5072233;28;20107;-56
2022/10/23 13:22:27;;;;;;;8.85;2.95;;;;;;;;;;5075436;28;20461;-56
2022/10/23 13:24:52;;;;;;;7.15;2.78;;;;;;;;;;5073830;28;20024;-56
2022/10/23 13:27:30;;;;;;;12.63;2.83;;;;;;;;;;5084197;28;20026;-55
2022/10/23 13:29:55;;;;;;;8.57;3.20;;;;;;;;;;5082023;28;20049;-56
2022/10/23 13:32:24;;;;;;;16.13;2.67;;;;;;;;;;5078378;28;20024;-56
2022/10/23 13:34:50;;;;;;;8.93;3.20;;;;;;;;;;5088627;28;20125;-56
2022/10/23 13:37:25;;;;;;;11.95;3.25;;;;;;;;;;5076974;28;20044;-54
2022/10/23 13:40:00;;;;;;;9.48;3.13;;;;;;;;;;5077183;28;20481;-55
2022/10/23 13:42:25;;;;;;;9.38;3.03;;;;;;;;;;5075210;28;20130;-54
2022/10/23 13:44:50;;;;;;;12.93;2.60;;;;;;;;;;5079265;28;20116;-56
2022/10/23 13:47:16;;;;;;;13.15;3.00;;;;;;;;;;5083719;28;20032;-54
2022/10/23 13:49:41;;;;;;;14.80;2.97;;;;;;;;;;5075956;28;20013;-55
2022/10/23 13:52:07;;;;;;;6.28;2.50;;;;;;;;;;5090499;28;20401;-55
2022/10/23 13:54:32;;;;;;;13.68;3.30;;;;;;;;;;5082621;28;20487;-55
2022/10/23 13:56:57;;;;;;;8.73;2.85;;;;;;;;;;5089957;28;20040;-56
2022/10/23 13:59:23;;;;;;;13.27;2.78;;;;;;;;;;5089091;28;20026;-56
2022/10/23 14:01:48;;;;;;;5.57;2.53;;;;;;;;;;5090793;28;20048;-56
2022/10/23 14:04:14;;;;;;;7.38;3.15;;;;;;;;;;5077995;28;20326;-56
2022/10/23 14:06:40;;;;;;;6.68;2.85;;;;;;;;;;5086093;28;20402;-55
2022/10/23 14:09:06;;;;;;;7.25;2.58;;;;;;;;;;5076758;28;20320;-56
2022/10/23 14:11:31;;;;;;;11.43;2.67;;;;;;;;;;5074315;28;20423;-55
2022/10/23 14:13:56;;;;;;;7.82;2.72;;;;;;;;;;5076798;28;20020;-56
2022/10/23 14:16:22;;;;;;;11.15;3.10;;;;;;;;;;5082855;28;20024;-54
2022/10/23 14:18:47;;;;;;;8.13;2.88;;;;;;;;;;5078484;28;20029;-54
2022/10/23 14:21:13;;;;;;;12.60;2.85;;;;;;;;;;5073295;28;20020;-54
2022/10/23 14:23:38;;;;;;;7.63;2.88;;;;;;;;;;5077471;28;20463;-56
2022/10/23 14:26:07;;;;;;;11.82;3.20;;;;;;;;;;5075115;28;20013;-55
2022/10/23 14:28:33;;;;;;;11.32;2.95;;;;;;;;;;5086390;28;20532;-55
2022/10/23 14:31:05;;;;;;;7.63;2.78;;;;;;;;;;5086235;28;20027;-55
2022/10/23 14:33:30;;;;;;;13.68;3.20;;;;;;;;;;5078116;28;20047;-57
2022/10/23 14:35:55;;;;;;;6.18;2.90;;;;;;;;;;5081354;28;20020;-56